Terminal Aerodrome Forecast
Issued by NWS

Current Version | Previous Version | Text Only | Print | Product List | Glossary Off
Versions: 1 2 3 4 5 6 7 8 9 10 11 12 13 14 15 16 17 18 19 20 21 22 23 24 25 26

000
FTUS41 KRLX 052331
TAFCKB
TAF
KCKB 052331Z 0600/0624 00000KT P6SM SCT250
     FM061500 11007KT 5SM -RA OVC040
     FM061700 14008KT 5SM -RA OVC016
     FM061900 15008KT 2SM -RA OVC007
     FM062100 15006KT 1SM -RA OVC004=

USA.gov is the U.S. government's official web portal to all federal, state and local government web resources and services.